sensor_id;sensor_type;location;lat;lon;timestamp;temperature;humidity
25410;DHT22;13339;50.840;4.346;2022-07-19T00:02:00;28.80;86.70
25410;DHT22;13339;50.840;4.346;2022-07-19T00:04:26;28.80;86.90
25410;DHT22;13339;50.840;4.346;2022-07-19T00:06:52;28.70;87.70
25410;DHT22;13339;50.840;4.346;2022-07-19T00:09:20;28.60;87.00
25410;DHT22;13339;50.840;4.346;2022-07-19T00:11:46;28.50;87.10
25410;DHT22;13339;50.840;4.346;2022-07-19T00:14:12;28.60;87.10
25410;DHT22;13339;50.840;4.346;2022-07-19T00:16:38;28.60;87.10
25410;DHT22;13339;50.840;4.346;2022-07-19T00:19:03;28.50;87.00
25410;DHT22;13339;50.840;4.346;2022-07-19T00:21:29;28.40;87.10
25410;DHT22;13339;50.840;4.346;2022-07-19T00:23:54;28.40;87.20
25410;DHT22;13339;50.840;4.346;2022-07-19T00:26:20;28.40;87.20
25410;DHT22;13339;50.840;4.346;2022-07-19T00:28:46;28.30;87.40
25410;DHT22;13339;50.840;4.346;2022-07-19T00:31:11;28.30;87.50
25410;DHT22;13339;50.840;4.346;2022-07-19T00:33:37;28.40;87.30
25410;DHT22;13339;50.840;4.346;2022-07-19T00:36:03;28.40;87.00
25410;DHT22;13339;50.840;4.346;2022-07-19T00:38:28;28.40;86.90
25410;DHT22;13339;50.840;4.346;2022-07-19T00:40:54;28.40;86.90
25410;DHT22;13339;50.840;4.346;2022-07-19T00:43:19;28.40;86.50
25410;DHT22;13339;50.840;4.346;2022-07-19T00:45:45;28.40;86.30
25410;DHT22;13339;50.840;4.346;2022-07-19T00:48:11;28.40;86.30
25410;DHT22;13339;50.840;4.346;2022-07-19T00:50:36;28.40;86.20
25410;DHT22;13339;50.840;4.346;2022-07-19T00:53:03;28.40;86.10
25410;DHT22;13339;50.840;4.346;2022-07-19T00:55:33;28.40;86.00
25410;DHT22;13339;50.840;4.346;2022-07-19T00:58:01;28.40;85.70
25410;DHT22;13339;50.840;4.346;2022-07-19T01:00:29;28.40;86.00
25410;DHT22;13339;50.840;4.346;2022-07-19T01:02:57;28.40;86.10
25410;DHT22;13339;50.840;4.346;2022-07-19T01:05:23;28.40;85.80
25410;DHT22;13339;50.840;4.346;2022-07-19T01:07:49;28.40;85.60
25410;DHT22;13339;50.840;4.346;2022-07-19T01:10:15;28.40;85.80
25410;DHT22;13339;50.840;4.346;2022-07-19T01:12:41;28.30;85.90
25410;DHT22;13339;50.840;4.346;2022-07-19T01:15:23;28.30;85.90
25410;DHT22;13339;50.840;4.346;2022-07-19T01:17:51;28.30;85.90
25410;DHT22;13339;50.840;4.346;2022-07-19T01:20:17;28.20;86.10
25410;DHT22;13339;50.840;4.346;2022-07-19T01:22:45;28.20;86.00
25410;DHT22;13339;50.840;4.346;2022-07-19T01:25:11;28.10;85.80
25410;DHT22;13339;50.840;4.346;2022-07-19T01:27:47;28.10;85.60
25410;DHT22;13339;50.840;4.346;2022-07-19T01:30:19;28.10;86.00
25410;DHT22;13339;50.840;4.346;2022-07-19T01:32:45;28.10;85.90
25410;DHT22;13339;50.840;4.346;2022-07-19T01:35:11;28.10;86.70
25410;DHT22;13339;50.840;4.346;2022-07-19T01:37:37;28.10;85.60
25410;DHT22;13339;50.840;4.346;2022-07-19T01:40:05;28.20;85.40
25410;DHT22;13339;50.840;4.346;2022-07-19T01:42:31;28.20;85.40
25410;DHT22;13339;50.840;4.346;2022-07-19T01:44:57;28.20;85.40
25410;DHT22;13339;50.840;4.346;2022-07-19T01:47:23;28.10;85.50
25410;DHT22;13339;50.840;4.346;2022-07-19T01:49:48;28.10;85.60
25410;DHT22;13339;50.840;4.346;2022-07-19T01:52:14;28.10;85.90
25410;DHT22;13339;50.840;4.346;2022-07-19T01:54:39;28.00;86.70
25410;DHT22;13339;50.840;4.346;2022-07-19T01:57:05;28.00;87.00
25410;DHT22;13339;50.840;4.346;2022-07-19T01:59:31;27.90;87.20
25410;DHT22;13339;50.840;4.346;2022-07-19T02:01:56;27.90;87.50
25410;DHT22;13339;50.840;4.346;2022-07-19T02:04:22;27.80;88.90
25410;DHT22;13339;50.840;4.346;2022-07-19T02:06:47;27.80;88.30
25410;DHT22;13339;50.840;4.346;2022-07-19T02:09:13;27.80;88.40
25410;DHT22;13339;50.840;4.346;2022-07-19T02:11:39;27.80;88.40
25410;DHT22;13339;50.840;4.346;2022-07-19T02:14:06;27.80;87.90
25410;DHT22;13339;50.840;4.346;2022-07-19T02:16:32;27.80;88.10
25410;DHT22;13339;50.840;4.346;2022-07-19T02:18:59;27.70;88.70
25410;DHT22;13339;50.840;4.346;2022-07-19T02:21:24;27.70;88.70
25410;DHT22;13339;50.840;4.346;2022-07-19T02:23:50;27.80;88.60
25410;DHT22;13339;50.840;4.346;2022-07-19T02:26:15;27.70;88.20
25410;DHT22;13339;50.840;4.346;2022-07-19T02:28:41;27.60;88.00
25410;DHT22;13339;50.840;4.346;2022-07-19T02:31:07;27.60;88.10
25410;DHT22;13339;50.840;4.346;2022-07-19T02:33:32;27.50;88.20
25410;DHT22;13339;50.840;4.346;2022-07-19T02:35:58;27.60;88.50
25410;DHT22;13339;50.840;4.346;2022-07-19T02:38:24;27.60;88.70
25410;DHT22;13339;50.840;4.346;2022-07-19T02:40:49;27.50;89.00
25410;DHT22;13339;50.840;4.346;2022-07-19T02:43:15;27.50;89.40
25410;DHT22;13339;50.840;4.346;2022-07-19T02:45:41;27.40;89.70
25410;DHT22;13339;50.840;4.346;2022-07-19T02:48:08;27.50;89.30
25410;DHT22;13339;50.840;4.346;2022-07-19T02:50:34;27.50;89.70
25410;DHT22;13339;50.840;4.346;2022-07-19T02:53:01;27.50;89.60
25410;DHT22;13339;50.840;4.346;2022-07-19T02:55:26;27.40;89.70
25410;DHT22;13339;50.840;4.346;2022-07-19T02:57:52;27.40;90.00
25410;DHT22;13339;50.840;4.346;2022-07-19T03:00:18;27.40;90.00
25410;DHT22;13339;50.840;4.346;2022-07-19T03:02:44;27.40;90.10
25410;DHT22;13339;50.840;4.346;2022-07-19T03:05:09;27.40;90.00
25410;DHT22;13339;50.840;4.346;2022-07-19T03:07:35;27.30;90.10
25410;DHT22;13339;50.840;4.346;2022-07-19T03:10:01;27.30;90.40
25410;DHT22;13339;50.840;4.346;2022-07-19T03:12:26;27.30;90.60
25410;DHT22;13339;50.840;4.346;2022-07-19T03:14:52;27.30;90.50
25410;DHT22;13339;50.840;4.346;2022-07-19T03:17:18;27.20;91.00
25410;DHT22;13339;50.840;4.346;2022-07-19T03:19:43;27.10;91.30
25410;DHT22;13339;50.840;4.346;2022-07-19T03:22:09;27.10;91.50
25410;DHT22;13339;50.840;4.346;2022-07-19T03:24:34;27.10;91.70
25410;DHT22;13339;50.840;4.346;2022-07-19T03:27:00;27.10;91.90
25410;DHT22;13339;50.840;4.346;2022-07-19T03:29:25;27.10;92.10
25410;DHT22;13339;50.840;4.346;2022-07-19T03:31:52;27.00;92.90
25410;DHT22;13339;50.840;4.346;2022-07-19T03:34:17;27.00;93.00
25410;DHT22;13339;50.840;4.346;2022-07-19T03:36:43;27.00;93.10
25410;DHT22;13339;50.840;4.346;2022-07-19T03:39:09;26.90;93.30
25410;DHT22;13339;50.840;4.346;2022-07-19T03:41:34;26.90;93.40
25410;DHT22;13339;50.840;4.346;2022-07-19T03:44:00;26.80;93.50
25410;DHT22;13339;50.840;4.346;2022-07-19T03:46:26;26.80;93.80
25410;DHT22;13339;50.840;4.346;2022-07-19T03:48:53;26.80;94.00
25410;DHT22;13339;50.840;4.346;2022-07-19T03:51:19;26.70;94.10
25410;DHT22;13339;50.840;4.346;2022-07-19T03:53:44;26.60;94.20
25410;DHT22;13339;50.840;4.346;2022-07-19T03:56:10;26.70;94.30
25410;DHT22;13339;50.840;4.346;2022-07-19T03:58:36;26.70;94.50
25410;DHT22;13339;50.840;4.346;2022-07-19T04:01:02;26.70;94.40
25410;DHT22;13339;50.840;4.346;2022-07-19T04:03:27;26.50;94.80
25410;DHT22;13339;50.840;4.346;2022-07-19T04:05:53;26.60;94.90
25410;DHT22;13339;50.840;4.346;2022-07-19T04:08:18;26.50;95.10
25410;DHT22;13339;50.840;4.346;2022-07-19T04:10:44;26.40;95.30
25410;DHT22;13339;50.840;4.346;2022-07-19T04:13:09;26.50;95.40
25410;DHT22;13339;50.840;4.346;2022-07-19T04:15:35;26.50;95.30
25410;DHT22;13339;50.840;4.346;2022-07-19T04:18:01;26.50;95.30
25410;DHT22;13339;50.840;4.346;2022-07-19T04:20:26;26.40;95.60
25410;DHT22;13339;50.840;4.346;2022-07-19T04:22:52;26.40;95.80
25410;DHT22;13339;50.840;4.346;2022-07-19T04:25:19;26.30;96.20
25410;DHT22;13339;50.840;4.346;2022-07-19T04:27:44;26.30;96.10
25410;DHT22;13339;50.840;4.346;2022-07-19T04:30:10;26.10;96.50
25410;DHT22;13339;50.840;4.346;2022-07-19T04:32:36;26.10;96.30
25410;DHT22;13339;50.840;4.346;2022-07-19T04:35:02;26.10;96.60
25410;DHT22;13339;50.840;4.346;2022-07-19T04:37:27;26.00;96.60
25410;DHT22;13339;50.840;4.346;2022-07-19T04:39:53;26.00;96.50
25410;DHT22;13339;50.840;4.346;2022-07-19T04:42:19;26.10;96.40
25410;DHT22;13339;50.840;4.346;2022-07-19T04:44:44;26.30;96.10
25410;DHT22;13339;50.840;4.346;2022-07-19T04:47:10;26.30;96.00
25410;DHT22;13339;50.840;4.346;2022-07-19T04:49:36;26.20;96.20
25410;DHT22;13339;50.840;4.346;2022-07-19T04:52:01;26.40;96.00
25410;DHT22;13339;50.840;4.346;2022-07-19T04:54:27;26.30;96.20
25410;DHT22;13339;50.840;4.346;2022-07-19T04:56:53;26.10;96.20
25410;DHT22;13339;50.840;4.346;2022-07-19T04:59:18;26.30;96.30
25410;DHT22;13339;50.840;4.346;2022-07-19T05:01:44;26.30;96.30
25410;DHT22;13339;50.840;4.346;2022-07-19T05:04:10;26.40;96.50
25410;DHT22;13339;50.840;4.346;2022-07-19T05:06:35;26.50;95.90
25410;DHT22;13339;50.840;4.346;2022-07-19T05:09:01;26.40;96.10
25410;DHT22;13339;50.840;4.346;2022-07-19T05:11:27;26.20;96.50
25410;DHT22;13339;50.840;4.346;2022-07-19T05:13:55;26.20;96.50
25410;DHT22;13339;50.840;4.346;2022-07-19T05:16:21;26.40;96.30
25410;DHT22;13339;50.840;4.346;2022-07-19T05:18:49;26.40;96.30
25410;DHT22;13339;50.840;4.346;2022-07-19T05:21:14;26.40;96.40
25410;DHT22;13339;50.840;4.346;2022-07-19T05:23:40;26.50;96.50
25410;DHT22;13339;50.840;4.346;2022-07-19T05:26:07;26.50;96.70
25410;DHT22;13339;50.840;4.346;2022-07-19T05:28:33;26.60;96.50
25410;DHT22;13339;50.840;4.346;2022-07-19T05:30:58;26.60;96.30
25410;DHT22;13339;50.840;4.346;2022-07-19T05:33:24;26.80;96.20
25410;DHT22;13339;50.840;4.346;2022-07-19T05:35:51;26.80;96.30
25410;DHT22;13339;50.840;4.346;2022-07-19T05:38:17;26.80;96.20
25410;DHT22;13339;50.840;4.346;2022-07-19T05:40:43;27.00;96.10
25410;DHT22;13339;50.840;4.346;2022-07-19T05:43:08;27.00;96.00
25410;DHT22;13339;50.840;4.346;2022-07-19T05:45:34;27.00;96.20
25410;DHT22;13339;50.840;4.346;2022-07-19T05:48:00;27.00;96.10
25410;DHT22;13339;50.840;4.346;2022-07-19T05:50:25;27.10;95.90
25410;DHT22;13339;50.840;4.346;2022-07-19T05:52:51;27.10;95.80
25410;DHT22;13339;50.840;4.346;2022-07-19T05:55:17;27.20;95.80
25410;DHT22;13339;50.840;4.346;2022-07-19T05:57:42;27.20;95.70
25410;DHT22;13339;50.840;4.346;2022-07-19T06:00:08;27.20;95.70
25410;DHT22;13339;50.840;4.346;2022-07-19T06:02:34;27.30;95.60
25410;DHT22;13339;50.840;4.346;2022-07-19T06:05:00;27.50;95.40
25410;DHT22;13339;50.840;4.346;2022-07-19T06:07:26;27.60;95.40
25410;DHT22;13339;50.840;4.346;2022-07-19T06:09:51;27.70;95.20
25410;DHT22;13339;50.840;4.346;2022-07-19T06:12:17;27.80;95.00
25410;DHT22;13339;50.840;4.346;2022-07-19T06:14:42;27.80;95.00
25410;DHT22;13339;50.840;4.346;2022-07-19T06:17:08;27.90;94.80
25410;DHT22;13339;50.840;4.346;2022-07-19T06:19:33;28.00;94.70
25410;DHT22;13339;50.840;4.346;2022-07-19T06:21:59;28.00;94.50
25410;DHT22;13339;50.840;4.346;2022-07-19T06:24:25;28.10;94.20
25410;DHT22;13339;50.840;4.346;2022-07-19T06:26:50;28.20;94.20
25410;DHT22;13339;50.840;4.346;2022-07-19T06:29:16;28.30;94.00
25410;DHT22;13339;50.840;4.346;2022-07-19T06:31:41;28.40;93.30
25410;DHT22;13339;50.840;4.346;2022-07-19T06:34:07;28.40;92.50
25410;DHT22;13339;50.840;4.346;2022-07-19T06:36:32;28.50;92.90
25410;DHT22;13339;50.840;4.346;2022-07-19T06:38:58;28.60;92.30
25410;DHT22;13339;50.840;4.346;2022-07-19T06:41:24;28.60;92.10
25410;DHT22;13339;50.840;4.346;2022-07-19T06:43:49;28.60;91.60
25410;DHT22;13339;50.840;4.346;2022-07-19T06:46:15;28.70;91.10
25410;DHT22;13339;50.840;4.346;2022-07-19T06:48:41;28.70;90.60
25410;DHT22;13339;50.840;4.346;2022-07-19T06:51:07;29.00;90.40
25410;DHT22;13339;50.840;4.346;2022-07-19T06:53:33;29.10;89.70
25410;DHT22;13339;50.840;4.346;2022-07-19T06:55:58;29.20;88.90
25410;DHT22;13339;50.840;4.346;2022-07-19T06:58:24;29.30;88.20
25410;DHT22;13339;50.840;4.346;2022-07-19T07:00:50;29.50;87.50
25410;DHT22;13339;50.840;4.346;2022-07-19T07:03:17;29.60;87.80
25410;DHT22;13339;50.840;4.346;2022-07-19T07:05:44;29.70;86.70
25410;DHT22;13339;50.840;4.346;2022-07-19T07:08:09;29.70;86.30
25410;DHT22;13339;50.840;4.346;2022-07-19T07:10:35;29.80;86.50
25410;DHT22;13339;50.840;4.346;2022-07-19T07:13:01;29.90;89.10
25410;DHT22;13339;50.840;4.346;2022-07-19T07:15:27;29.80;87.30
25410;DHT22;13339;50.840;4.346;2022-07-19T07:17:52;29.90;87.10
25410;DHT22;13339;50.840;4.346;2022-07-19T07:20:18;30.00;86.60
25410;DHT22;13339;50.840;4.346;2022-07-19T07:22:43;30.00;87.20
25410;DHT22;13339;50.840;4.346;2022-07-19T07:25:09;30.10;86.90
25410;DHT22;13339;50.840;4.346;2022-07-19T07:27:35;30.00;86.40
25410;DHT22;13339;50.840;4.346;2022-07-19T07:30:01;30.10;87.90
25410;DHT22;13339;50.840;4.346;2022-07-19T07:32:26;30.10;87.00
25410;DHT22;13339;50.840;4.346;2022-07-19T07:34:53;30.20;86.20
25410;DHT22;13339;50.840;4.346;2022-07-19T07:37:19;30.20;87.70
25410;DHT22;13339;50.840;4.346;2022-07-19T07:39:44;30.20;87.40
25410;DHT22;13339;50.840;4.346;2022-07-19T07:42:10;30.30;87.50
25410;DHT22;13339;50.840;4.346;2022-07-19T07:44:36;30.30;87.10
25410;DHT22;13339;50.840;4.346;2022-07-19T07:47:01;30.40;86.90
25410;DHT22;13339;50.840;4.346;2022-07-19T07:49:27;30.50;86.90
25410;DHT22;13339;50.840;4.346;2022-07-19T07:51:53;30.60;86.70
25410;DHT22;13339;50.840;4.346;2022-07-19T07:54:19;30.60;87.20
25410;DHT22;13339;50.840;4.346;2022-07-19T07:56:45;30.70;86.80
25410;DHT22;13339;50.840;4.346;2022-07-19T07:59:10;30.90;86.20
25410;DHT22;13339;50.840;4.346;2022-07-19T08:01:36;31.10;86.30
25410;DHT22;13339;50.840;4.346;2022-07-19T08:04:03;31.90;86.20
25410;DHT22;13339;50.840;4.346;2022-07-19T08:06:29;33.00;84.70
25410;DHT22;13339;50.840;4.346;2022-07-19T08:08:54;34.30;82.30
25410;DHT22;13339;50.840;4.346;2022-07-19T08:11:21;35.10;81.30
25410;DHT22;13339;50.840;4.346;2022-07-19T08:13:46;36.20;79.30
25410;DHT22;13339;50.840;4.346;2022-07-19T08:16:12;36.70;78.10
25410;DHT22;13339;50.840;4.346;2022-07-19T08:18:38;37.00;77.40
25410;DHT22;13339;50.840;4.346;2022-07-19T08:21:04;37.50;76.80
25410;DHT22;13339;50.840;4.346;2022-07-19T08:23:29;37.30;75.20
25410;DHT22;13339;50.840;4.346;2022-07-19T08:25:55;37.30;76.20
25410;DHT22;13339;50.840;4.346;2022-07-19T08:28:20;37.40;75.80
25410;DHT22;13339;50.840;4.346;2022-07-19T08:30:46;36.80;76.90
25410;DHT22;13339;50.840;4.346;2022-07-19T08:33:11;36.20;77.30
25410;DHT22;13339;50.840;4.346;2022-07-19T08:35:38;36.10;77.90
25410;DHT22;13339;50.840;4.346;2022-07-19T08:38:04;35.70;80.10
25410;DHT22;13339;50.840;4.346;2022-07-19T08:40:33;35.50;78.70
25410;DHT22;13339;50.840;4.346;2022-07-19T08:43:02;35.30;80.40
25410;DHT22;13339;50.840;4.346;2022-07-19T08:45:30;35.10;80.50
25410;DHT22;13339;50.840;4.346;2022-07-19T08:47:57;34.80;81.90
25410;DHT22;13339;50.840;4.346;2022-07-19T08:50:25;34.80;81.80
25410;DHT22;13339;50.840;4.346;2022-07-19T08:52:52;34.60;82.60
25410;DHT22;13339;50.840;4.346;2022-07-19T08:55:17;34.50;83.00
25410;DHT22;13339;50.840;4.346;2022-07-19T08:57:43;34.30;83.00
25410;DHT22;13339;50.840;4.346;2022-07-19T09:00:30;34.10;83.40
25410;DHT22;13339;50.840;4.346;2022-07-19T09:03:01;33.90;83.00
25410;DHT22;13339;50.840;4.346;2022-07-19T09:05:28;33.70;82.60
25410;DHT22;13339;50.840;4.346;2022-07-19T09:08:02;33.70;83.50
25410;DHT22;13339;50.840;4.346;2022-07-19T09:10:28;33.70;82.80
25410;DHT22;13339;50.840;4.346;2022-07-19T09:13:02;33.80;82.30
25410;DHT22;13339;50.840;4.346;2022-07-19T09:15:50;33.70;83.00
25410;DHT22;13339;50.840;4.346;2022-07-19T09:18:23;33.70;83.40
25410;DHT22;13339;50.840;4.346;2022-07-19T09:20:52;33.70;83.50
25410;DHT22;13339;50.840;4.346;2022-07-19T09:23:18;33.70;83.10
25410;DHT22;13339;50.840;4.346;2022-07-19T09:25:50;33.70;83.70
25410;DHT22;13339;50.840;4.346;2022-07-19T09:28:17;33.70;82.30
25410;DHT22;13339;50.840;4.346;2022-07-19T09:30:48;33.70;83.00
25410;DHT22;13339;50.840;4.346;2022-07-19T09:33:15;33.80;82.40
25410;DHT22;13339;50.840;4.346;2022-07-19T09:35:47;33.80;82.00
25410;DHT22;13339;50.840;4.346;2022-07-19T09:38:33;33.90;82.00
25410;DHT22;13339;50.840;4.346;2022-07-19T09:41:13;33.90;81.10
25410;DHT22;13339;50.840;4.346;2022-07-19T09:43:50;33.90;81.60
25410;DHT22;13339;50.840;4.346;2022-07-19T09:46:37;33.90;81.50
25410;DHT22;13339;50.840;4.346;2022-07-19T09:49:16;34.00;81.00
25410;DHT22;13339;50.840;4.346;2022-07-19T09:51:48;34.00;80.60
25410;DHT22;13339;50.840;4.346;2022-07-19T09:54:16;34.20;80.80
25410;DHT22;13339;50.840;4.346;2022-07-19T09:56:43;34.20;79.80
25410;DHT22;13339;50.840;4.346;2022-07-19T09:59:09;34.20;79.10
25410;DHT22;13339;50.840;4.346;2022-07-19T10:01:36;34.40;79.60
25410;DHT22;13339;50.840;4.346;2022-07-19T10:04:11;34.40;79.70
25410;DHT22;13339;50.840;4.346;2022-07-19T10:06:38;34.60;78.90
25410;DHT22;13339;50.840;4.346;2022-07-19T10:09:07;34.60;78.60
25410;DHT22;13339;50.840;4.346;2022-07-19T10:11:33;34.60;78.30
25410;DHT22;13339;50.840;4.346;2022-07-19T10:14:00;34.80;78.20
25410;DHT22;13339;50.840;4.346;2022-07-19T10:19:39;35.10;77.30
25410;DHT22;13339;50.840;4.346;2022-07-19T10:22:09;35.20;76.50
25410;DHT22;13339;50.840;4.346;2022-07-19T10:27:34;35.40;75.70
25410;DHT22;13339;50.840;4.346;2022-07-19T10:32:41;35.50;74.80
25410;DHT22;13339;50.840;4.346;2022-07-19T10:35:30;35.60;74.10
25410;DHT22;13339;50.840;4.346;2022-07-19T10:40:48;35.70;73.00
25410;DHT22;13339;50.840;4.346;2022-07-19T10:43:18;35.70;74.10
25410;DHT22;13339;50.840;4.346;2022-07-19T10:48:41;35.90;74.20
25410;DHT22;13339;50.840;4.346;2022-07-19T10:51:26;36.10;72.50
25410;DHT22;13339;50.840;4.346;2022-07-19T10:54:03;36.10;70.90
25410;DHT22;13339;50.840;4.346;2022-07-19T10:56:33;36.20;71.90
25410;DHT22;13339;50.840;4.346;2022-07-19T10:59:04;36.30;71.20
25410;DHT22;13339;50.840;4.346;2022-07-19T11:01:32;36.30;71.30
25410;DHT22;13339;50.840;4.346;2022-07-19T11:04:29;36.20;71.40
25410;DHT22;13339;50.840;4.346;2022-07-19T11:07:19;36.20;71.80
25410;DHT22;13339;50.840;4.346;2022-07-19T11:09:50;36.30;70.40
25410;DHT22;13339;50.840;4.346;2022-07-19T11:14:53;36.50;69.90
25410;DHT22;13339;50.840;4.346;2022-07-19T11:17:19;36.40;70.10
25410;DHT22;13339;50.840;4.346;2022-07-19T11:20:05;36.50;69.80
25410;DHT22;13339;50.840;4.346;2022-07-19T11:22:34;36.70;70.10
25410;DHT22;13339;50.840;4.346;2022-07-19T11:25:00;36.70;69.90
25410;DHT22;13339;50.840;4.346;2022-07-19T11:27:26;36.70;70.20
25410;DHT22;13339;50.840;4.346;2022-07-19T11:29:57;36.80;70.20
25410;DHT22;13339;50.840;4.346;2022-07-19T11:32:23;36.90;70.20
25410;DHT22;13339;50.840;4.346;2022-07-19T11:35:00;36.90;69.80
25410;DHT22;13339;50.840;4.346;2022-07-19T11:37:28;36.90;69.90
25410;DHT22;13339;50.840;4.346;2022-07-19T11:39:55;37.10;70.30
25410;DHT22;13339;50.840;4.346;2022-07-19T11:42:36;37.10;70.30
25410;DHT22;13339;50.840;4.346;2022-07-19T11:45:16;37.30;70.50
25410;DHT22;13339;50.840;4.346;2022-07-19T11:47:46;37.40;69.70
25410;DHT22;13339;50.840;4.346;2022-07-19T11:50:14;37.40;69.50
25410;DHT22;13339;50.840;4.346;2022-07-19T11:52:51;37.50;70.40
25410;DHT22;13339;50.840;4.346;2022-07-19T11:55:19;37.70;70.10
25410;DHT22;13339;50.840;4.346;2022-07-19T11:57:46;37.70;69.30
25410;DHT22;13339;50.840;4.346;2022-07-19T12:00:13;37.80;68.70
25410;DHT22;13339;50.840;4.346;2022-07-19T12:03:03;37.80;68.70
25410;DHT22;13339;50.840;4.346;2022-07-19T12:05:39;37.90;69.50
25410;DHT22;13339;50.840;4.346;2022-07-19T12:08:07;37.90;68.60
25410;DHT22;13339;50.840;4.346;2022-07-19T12:10:45;38.00;68.90
25410;DHT22;13339;50.840;4.346;2022-07-19T12:13:28;38.10;69.10
25410;DHT22;13339;50.840;4.346;2022-07-19T12:15:56;38.10;69.30
25410;DHT22;13339;50.840;4.346;2022-07-19T12:18:41;38.10;69.40
25410;DHT22;13339;50.840;4.346;2022-07-19T12:23:41;38.20;68.10
25410;DHT22;13339;50.840;4.346;2022-07-19T12:26:07;38.10;67.80
25410;DHT22;13339;50.840;4.346;2022-07-19T12:28:33;38.10;68.10
25410;DHT22;13339;50.840;4.346;2022-07-19T12:31:06;38.30;68.30
25410;DHT22;13339;50.840;4.346;2022-07-19T12:33:32;38.30;67.60
25410;DHT22;13339;50.840;4.346;2022-07-19T12:35:58;38.20;67.60
25410;DHT22;13339;50.840;4.346;2022-07-19T12:38:33;38.10;67.70
25410;DHT22;13339;50.840;4.346;2022-07-19T12:41:08;38.20;68.20
25410;DHT22;13339;50.840;4.346;2022-07-19T12:43:35;38.30;67.30
25410;DHT22;13339;50.840;4.346;2022-07-19T12:46:01;38.30;67.90
25410;DHT22;13339;50.840;4.346;2022-07-19T12:48:27;38.20;67.30
25410;DHT22;13339;50.840;4.346;2022-07-19T12:50:53;38.20;66.70
25410;DHT22;13339;50.840;4.346;2022-07-19T12:53:19;38.40;67.60
25410;DHT22;13339;50.840;4.346;2022-07-19T12:55:46;38.50;67.10
25410;DHT22;13339;50.840;4.346;2022-07-19T12:58:14;38.60;66.60
25410;DHT22;13339;50.840;4.346;2022-07-19T13:00:40;38.70;66.10
25410;DHT22;13339;50.840;4.346;2022-07-19T13:03:10;38.70;65.90
25410;DHT22;13339;50.840;4.346;2022-07-19T13:05:35;38.70;65.40
25410;DHT22;13339;50.840;4.346;2022-07-19T13:08:02;38.80;64.80
25410;DHT22;13339;50.840;4.346;2022-07-19T13:10:28;38.80;64.70
25410;DHT22;13339;50.840;4.346;2022-07-19T13:12:54;38.70;64.30
25410;DHT22;13339;50.840;4.346;2022-07-19T13:15:20;38.80;63.90
25410;DHT22;13339;50.840;4.346;2022-07-19T13:17:46;38.70;64.50
25410;DHT22;13339;50.840;4.346;2022-07-19T13:20:12;38.70;64.70
25410;DHT22;13339;50.840;4.346;2022-07-19T13:22:41;38.80;64.70
25410;DHT22;13339;50.840;4.346;2022-07-19T13:25:09;38.70;64.50
25410;DHT22;13339;50.840;4.346;2022-07-19T13:27:36;38.80;64.10
25410;DHT22;13339;50.840;4.346;2022-07-19T13:30:01;38.90;63.30
25410;DHT22;13339;50.840;4.346;2022-07-19T13:32:27;39.00;63.20
25410;DHT22;13339;50.840;4.346;2022-07-19T13:34:53;39.00;62.30
25410;DHT22;13339;50.840;4.346;2022-07-19T13:37:18;38.90;62.80
25410;DHT22;13339;50.840;4.346;2022-07-19T13:39:44;38.90;62.80
25410;DHT22;13339;50.840;4.346;2022-07-19T13:42:09;39.00;63.10
25410;DHT22;13339;50.840;4.346;2022-07-19T13:44:35;39.10;62.30
25410;DHT22;13339;50.840;4.346;2022-07-19T13:47:01;39.30;62.10
25410;DHT22;13339;50.840;4.346;2022-07-19T13:49:26;39.20;60.80
25410;DHT22;13339;50.840;4.346;2022-07-19T13:51:52;39.20;60.90
25410;DHT22;13339;50.840;4.346;2022-07-19T13:54:18;39.30;60.70
25410;DHT22;13339;50.840;4.346;2022-07-19T13:56:44;39.30;60.90
25410;DHT22;13339;50.840;4.346;2022-07-19T13:59:09;39.10;61.40
25410;DHT22;13339;50.840;4.346;2022-07-19T14:01:35;39.10;61.00
25410;DHT22;13339;50.840;4.346;2022-07-19T14:04:01;39.20;60.50
25410;DHT22;13339;50.840;4.346;2022-07-19T14:06:27;39.30;60.50
25410;DHT22;13339;50.840;4.346;2022-07-19T14:08:53;39.30;60.60
25410;DHT22;13339;50.840;4.346;2022-07-19T14:11:19;39.30;59.70
25410;DHT22;13339;50.840;4.346;2022-07-19T14:13:44;39.30;60.10
25410;DHT22;13339;50.840;4.346;2022-07-19T14:16:10;39.30;59.20
25410;DHT22;13339;50.840;4.346;2022-07-19T14:18:36;39.30;58.20
25410;DHT22;13339;50.840;4.346;2022-07-19T14:21:01;39.40;58.00
25410;DHT22;13339;50.840;4.346;2022-07-19T14:23:27;39.30;58.00
25410;DHT22;13339;50.840;4.346;2022-07-19T14:25:53;39.30;58.50
25410;DHT22;13339;50.840;4.346;2022-07-19T14:28:18;39.10;58.30
25410;DHT22;13339;50.840;4.346;2022-07-19T14:30:44;39.20;57.90
25410;DHT22;13339;50.840;4.346;2022-07-19T14:33:10;39.30;58.30
25410;DHT22;13339;50.840;4.346;2022-07-19T14:35:37;39.20;57.70
25410;DHT22;13339;50.840;4.346;2022-07-19T14:38:04;39.20;57.80
25410;DHT22;13339;50.840;4.346;2022-07-19T14:40:29;39.30;58.00
25410;DHT22;13339;50.840;4.346;2022-07-19T14:42:56;39.30;58.30
25410;DHT22;13339;50.840;4.346;2022-07-19T14:45:22;39.40;57.90
25410;DHT22;13339;50.840;4.346;2022-07-19T14:47:48;39.50;57.30
25410;DHT22;13339;50.840;4.346;2022-07-19T14:50:13;39.60;56.20
25410;DHT22;13339;50.840;4.346;2022-07-19T14:52:39;39.60;55.50
25410;DHT22;13339;50.840;4.346;2022-07-19T14:55:07;39.50;55.60
25410;DHT22;13339;50.840;4.346;2022-07-19T14:57:33;39.60;55.40
25410;DHT22;13339;50.840;4.346;2022-07-19T14:59:59;39.70;55.20
25410;DHT22;13339;50.840;4.346;2022-07-19T15:02:24;39.70;55.30
25410;DHT22;13339;50.840;4.346;2022-07-19T15:04:50;39.70;54.60
25410;DHT22;13339;50.840;4.346;2022-07-19T15:07:16;39.70;55.00
25410;DHT22;13339;50.840;4.346;2022-07-19T15:09:42;39.50;54.20
25410;DHT22;13339;50.840;4.346;2022-07-19T15:12:08;39.40;54.30
25410;DHT22;13339;50.840;4.346;2022-07-19T15:14:34;39.40;55.10
25410;DHT22;13339;50.840;4.346;2022-07-19T15:17:02;39.30;54.90
25410;DHT22;13339;50.840;4.346;2022-07-19T15:19:28;39.40;54.70
25410;DHT22;13339;50.840;4.346;2022-07-19T15:21:54;39.50;54.90
25410;DHT22;13339;50.840;4.346;2022-07-19T15:24:20;39.50;54.80
25410;DHT22;13339;50.840;4.346;2022-07-19T15:26:46;39.50;54.20
25410;DHT22;13339;50.840;4.346;2022-07-19T15:29:13;39.60;54.90
25410;DHT22;13339;50.840;4.346;2022-07-19T15:31:41;39.60;55.00
25410;DHT22;13339;50.840;4.346;2022-07-19T15:34:07;39.70;54.70
25410;DHT22;13339;50.840;4.346;2022-07-19T15:36:33;39.60;55.20
25410;DHT22;13339;50.840;4.346;2022-07-19T15:38:59;39.40;55.50
25410;DHT22;13339;50.840;4.346;2022-07-19T15:41:24;39.40;55.20
25410;DHT22;13339;50.840;4.346;2022-07-19T15:43:51;39.40;55.10
25410;DHT22;13339;50.840;4.346;2022-07-19T15:46:16;39.40;55.30
25410;DHT22;13339;50.840;4.346;2022-07-19T15:48:42;39.30;55.60
25410;DHT22;13339;50.840;4.346;2022-07-19T15:51:09;39.40;55.80